sensor_id;sensor_type;location;lat;lon;timestamp;pressure;altitude;pressure_sealevel;temperature;humidity
29383;BME280;16365;51.598;7.668;2023-02-23T00:01:35;100571.19;;;16.38;49.99
29383;BME280;16365;51.598;7.668;2023-02-23T00:04:03;100580.84;;;16.40;49.57
29383;BME280;16365;51.598;7.668;2023-02-23T00:06:31;100573.66;;;16.39;49.92
29383;BME280;16365;51.598;7.668;2023-02-23T00:08:58;100578.41;;;16.39;50.05
29383;BME280;16365;51.598;7.668;2023-02-23T00:11:27;100580.41;;;16.38;49.96
29383;BME280;16365;51.598;7.668;2023-02-23T00:13:54;100575.63;;;16.39;49.85
29383;BME280;16365;51.598;7.668;2023-02-23T00:16:23;100572.38;;;16.37;49.96
29383;BME280;16365;51.598;7.668;2023-02-23T00:18:54;100575.63;;;16.39;49.92
29383;BME280;16365;51.598;7.668;2023-02-23T00:21:27;100572.38;;;16.37;50.54
29383;BME280;16365;51.598;7.668;2023-02-23T00:23:59;100569.22;;;16.38;50.28
29383;BME280;16365;51.598;7.668;2023-02-23T00:26:30;100567.59;;;16.37;50.12
29383;BME280;16365;51.598;7.668;2023-02-23T00:29:03;100571.59;;;16.36;50.18
29383;BME280;16365;51.598;7.668;2023-02-23T00:31:30;100566.00;;;16.36;50.05
29383;BME280;16365;51.598;7.668;2023-02-23T00:33:59;100560.78;;;16.35;50.70
29383;BME280;16365;51.598;7.668;2023-02-23T00:36:28;100561.13;;;16.33;50.58
29383;BME280;16365;51.598;7.668;2023-02-23T00:38:57;100563.13;;;16.33;50.52
29383;BME280;16365;51.598;7.668;2023-02-23T00:41:27;100561.94;;;16.34;50.20
29383;BME280;16365;51.598;7.668;2023-02-23T00:43:58;100558.69;;;16.32;50.54
29383;BME280;16365;51.598;7.668;2023-02-23T00:46:27;100559.13;;;16.34;50.76
29383;BME280;16365;51.598;7.668;2023-02-23T00:48:57;100565.91;;;16.33;50.48
29383;BME280;16365;51.598;7.668;2023-02-23T00:51:26;100560.31;;;16.33;50.71
29383;BME280;16365;51.598;7.668;2023-02-23T00:53:57;100559.13;;;16.34;50.41
29383;BME280;16365;51.598;7.668;2023-02-23T00:56:25;100561.56;;;16.35;50.90
29383;BME280;16365;51.598;7.668;2023-02-23T00:58:51;100562.81;;;16.38;50.32
29383;BME280;16365;51.598;7.668;2023-02-23T01:01:18;100562.38;;;16.36;50.39
29383;BME280;16365;51.598;7.668;2023-02-23T01:03:45;100564.72;;;16.34;50.26
29383;BME280;16365;51.598;7.668;2023-02-23T01:06:13;100561.50;;;16.32;50.55
29383;BME280;16365;51.598;7.668;2023-02-23T01:08:42;100557.44;;;16.29;50.82
29383;BME280;16365;51.598;7.668;2023-02-23T01:11:15;100559.44;;;16.29;50.86
29383;BME280;16365;51.598;7.668;2023-02-23T01:13:43;100549.06;;;16.29;50.83
29383;BME280;16365;51.598;7.668;2023-02-23T01:16:13;100561.81;;;16.27;50.81
29383;BME280;16365;51.598;7.668;2023-02-23T01:18:41;100561.81;;;16.27;51.00
29383;BME280;16365;51.598;7.668;2023-02-23T01:21:21;100562.19;;;16.25;50.94
29383;BME280;16365;51.598;7.668;2023-02-23T01:23:50;100559.00;;;16.27;50.90
29383;BME280;16365;51.598;7.668;2023-02-23T01:26:22;100554.94;;;16.24;51.50
29383;BME280;16365;51.598;7.668;2023-02-23T01:28:55;100557.75;;;16.24;51.15
29383;BME280;16365;51.598;7.668;2023-02-23T01:31:23;100566.59;;;16.26;50.93
29383;BME280;16365;51.598;7.668;2023-02-23T01:33:58;100562.53;;;16.24;51.43
29383;BME280;16365;51.598;7.668;2023-02-23T01:36:25;100567.78;;;16.25;51.01
29383;BME280;16365;51.598;7.668;2023-02-23T01:38:52;100560.19;;;16.26;50.93
29383;BME280;16365;51.598;7.668;2023-02-23T01:41:23;100559.38;;;16.25;51.14
29383;BME280;16365;51.598;7.668;2023-02-23T01:44:08;100562.91;;;16.22;51.57
29383;BME280;16365;51.598;7.668;2023-02-23T01:46:53;100559.81;;;16.27;51.12
29383;BME280;16365;51.598;7.668;2023-02-23T01:49:22;100558.59;;;16.25;51.11
29383;BME280;16365;51.598;7.668;2023-02-23T01:52:19;100564.09;;;16.21;51.80
29383;BME280;16365;51.598;7.668;2023-02-23T01:54:49;100566.13;;;16.24;51.55
29383;BME280;16365;51.598;7.668;2023-02-23T01:57:19;100561.72;;;16.23;51.28
29383;BME280;16365;51.598;7.668;2023-02-23T01:59:49;100559.75;;;16.24;51.17
29383;BME280;16365;51.598;7.668;2023-02-23T02:02:17;100556.59;;;16.25;51.42
29383;BME280;16365;51.598;7.668;2023-02-23T02:04:46;100552.59;;;16.26;51.22
29383;BME280;16365;51.598;7.668;2023-02-23T02:07:21;100561.00;;;16.26;51.20
29383;BME280;16365;51.598;7.668;2023-02-23T02:09:51;100553.78;;;16.25;51.54
29383;BME280;16365;51.598;7.668;2023-02-23T02:12:37;100550.63;;;16.27;51.54
29383;BME280;16365;51.598;7.668;2023-02-23T02:15:07;100548.25;;;16.29;50.98
29383;BME280;16365;51.598;7.668;2023-02-23T02:23:49;100544.06;;;16.19;51.64
29383;BME280;16365;51.598;7.668;2023-02-23T02:26:27;100550.91;;;16.22;51.24
29383;BME280;16365;51.598;7.668;2023-02-23T02:29:18;100550.47;;;16.19;51.27
29383;BME280;16365;51.598;7.668;2023-02-23T02:35:09;100548.81;;;16.15;52.09
29383;BME280;16365;51.598;7.668;2023-02-23T02:38:00;100552.41;;;16.15;52.23
29383;BME280;16365;51.598;7.668;2023-02-23T02:43:11;100546.00;;;16.15;52.27
29383;BME280;16365;51.598;7.668;2023-02-23T02:51:23;100541.94;;;16.12;52.37
29383;BME280;16365;51.598;7.668;2023-02-23T02:53:59;100538.78;;;16.14;52.14
29383;BME280;16365;51.598;7.668;2023-02-23T02:56:36;100539.16;;;16.12;52.11
29383;BME280;16365;51.598;7.668;2023-02-23T02:59:09;100537.53;;;16.11;52.20
29383;BME280;16365;51.598;7.668;2023-02-23T03:01:56;100532.28;;;16.10;52.11
29383;BME280;16365;51.598;7.668;2023-02-23T03:04:41;100529.88;;;16.08;52.06
29383;BME280;16365;51.598;7.668;2023-02-23T03:07:42;100527.84;;;16.05;52.60
29383;BME280;16365;51.598;7.668;2023-02-23T03:10:43;100529.81;;;16.05;52.68
29383;BME280;16365;51.598;7.668;2023-02-23T03:16:51;100529.88;;;16.08;52.40
29383;BME280;16365;51.598;7.668;2023-02-23T03:19:49;100530.25;;;16.07;52.53
29383;BME280;16365;51.598;7.668;2023-02-23T03:22:44;100540.19;;;16.04;52.23
29383;BME280;16365;51.598;7.668;2023-02-23T03:25:44;100530.91;;;16.00;52.69
29383;BME280;16365;51.598;7.668;2023-02-23T03:28:41;100538.50;;;16.00;52.38
29383;BME280;16365;51.598;7.668;2023-02-23T03:31:46;100537.25;;;15.97;52.92
29383;BME280;16365;51.598;7.668;2023-02-23T03:34:38;100532.91;;;16.00;52.75
29383;BME280;16365;51.598;7.668;2023-02-23T03:37:30;100533.69;;;16.00;52.77
29383;BME280;16365;51.598;7.668;2023-02-23T03:40:25;100538.50;;;16.00;52.85
29383;BME280;16365;51.598;7.668;2023-02-23T03:43:19;100536.97;;;16.02;53.12
29383;BME280;16365;51.598;7.668;2023-02-23T03:46:08;100534.97;;;16.03;52.37
29383;BME280;16365;51.598;7.668;2023-02-23T03:48:57;100539.38;;;16.04;52.58
29383;BME280;16365;51.598;7.668;2023-02-23T03:51:47;100527.75;;;16.02;52.67
29383;BME280;16365;51.598;7.668;2023-02-23T03:54:38;100539.75;;;16.02;52.57
29383;BME280;16365;51.598;7.668;2023-02-23T03:57:26;100545.78;;;16.04;52.68
29383;BME280;16365;51.598;7.668;2023-02-23T04:00:19;100542.53;;;16.02;52.82
29383;BME280;16365;51.598;7.668;2023-02-23T04:03:07;100536.56;;;16.04;52.61
29383;BME280;16365;51.598;7.668;2023-02-23T04:05:54;100536.56;;;16.04;52.31
29383;BME280;16365;51.598;7.668;2023-02-23T04:08:42;100534.16;;;16.02;52.28
29383;BME280;16365;51.598;7.668;2023-02-23T04:11:36;100529.28;;;15.99;53.10
29383;BME280;16365;51.598;7.668;2023-02-23T04:14:29;100535.28;;;15.98;52.92
29383;BME280;16365;51.598;7.668;2023-02-23T04:16:58;100538.88;;;15.98;52.62
29383;BME280;16365;51.598;7.668;2023-02-23T04:19:26;100544.03;;;15.96;52.72
29383;BME280;16365;51.598;7.668;2023-02-23T04:21:54;100542.84;;;15.97;52.68
29383;BME280;16365;51.598;7.668;2023-02-23T04:24:20;100545.66;;;15.97;52.72
29383;BME280;16365;51.598;7.668;2023-02-23T04:26:48;100542.84;;;15.97;52.76
29383;BME280;16365;51.598;7.668;2023-02-23T04:29:14;100550.06;;;15.98;53.23
29383;BME280;16365;51.598;7.668;2023-02-23T04:31:41;100545.66;;;15.97;53.02
29383;BME280;16365;51.598;7.668;2023-02-23T04:34:08;100551.25;;;15.97;52.94
29383;BME280;16365;51.598;7.668;2023-02-23T04:36:34;100546.84;;;15.96;53.04
29383;BME280;16365;51.598;7.668;2023-02-23T04:39:02;100549.97;;;15.94;52.98
29383;BME280;16365;51.598;7.668;2023-02-23T04:41:28;100555.56;;;15.94;52.81
29383;BME280;16365;51.598;7.668;2023-02-23T04:43:55;100553.94;;;15.93;52.72
29383;BME280;16365;51.598;7.668;2023-02-23T04:46:21;100549.53;;;15.92;52.99
29383;BME280;16365;51.598;7.668;2023-02-23T04:48:48;100558.75;;;15.93;52.86
29383;BME280;16365;51.598;7.668;2023-02-23T04:51:14;100548.38;;;15.93;53.05
29383;BME280;16365;51.598;7.668;2023-02-23T04:53:41;100551.97;;;15.94;52.91
29383;BME280;16365;51.598;7.668;2023-02-23T04:56:09;100553.16;;;15.93;53.14
29383;BME280;16365;51.598;7.668;2023-02-23T04:58:37;100549.16;;;15.94;52.92
29383;BME280;16365;51.598;7.668;2023-02-23T05:01:05;100553.16;;;15.93;53.29
29383;BME280;16365;51.598;7.668;2023-02-23T05:03:32;100559.16;;;15.95;53.08
29383;BME280;16365;51.598;7.668;2023-02-23T05:05:58;100551.97;;;15.94;53.20
29383;BME280;16365;51.598;7.668;2023-02-23T05:08:25;100561.97;;;15.95;53.17
29383;BME280;16365;51.598;7.668;2023-02-23T05:10:52;100553.56;;;15.95;53.23
29383;BME280;16365;51.598;7.668;2023-02-23T05:13:18;100551.63;;;15.96;53.28
29383;BME280;16365;51.598;7.668;2023-02-23T05:15:45;100554.41;;;15.96;52.97
29383;BME280;16365;51.598;7.668;2023-02-23T05:18:12;100553.56;;;15.95;53.16
29383;BME280;16365;51.598;7.668;2023-02-23T05:20:41;100559.53;;;15.93;53.30
29383;BME280;16365;51.598;7.668;2023-02-23T05:23:10;100560.34;;;15.94;53.11
29383;BME280;16365;51.598;7.668;2023-02-23T05:25:38;100564.34;;;15.93;52.81
29383;BME280;16365;51.598;7.668;2023-02-23T05:28:04;100565.50;;;15.92;52.80
29383;BME280;16365;51.598;7.668;2023-02-23T05:30:31;100568.66;;;15.90;52.86
29383;BME280;16365;51.598;7.668;2023-02-23T05:32:58;100565.44;;;15.88;53.16
29383;BME280;16365;51.598;7.668;2023-02-23T05:35:25;100565.81;;;15.87;52.88
29383;BME280;16365;51.598;7.668;2023-02-23T05:37:52;100561.41;;;15.86;52.90
29383;BME280;16365;51.598;7.668;2023-02-23T05:40:18;100559.75;;;15.85;53.12
29383;BME280;16365;51.598;7.668;2023-02-23T05:42:45;100562.56;;;15.85;53.15
29383;BME280;16365;51.598;7.668;2023-02-23T05:45:11;100564.53;;;15.84;53.12
29383;BME280;16365;51.598;7.668;2023-02-23T05:47:37;100568.53;;;15.83;52.90
29383;BME280;16365;51.598;7.668;2023-02-23T05:50:07;100567.25;;;15.81;53.15
29383;BME280;16365;51.598;7.668;2023-02-23T05:52:39;100569.25;;;15.80;53.28
29383;BME280;16365;51.598;7.668;2023-02-23T05:55:08;100565.28;;;15.81;53.35
29383;BME280;16365;51.598;7.668;2023-02-23T05:57:37;100568.91;;;15.82;53.28
29383;BME280;16365;51.598;7.668;2023-02-23T06:00:05;100570.88;;;15.81;53.19
29383;BME280;16365;51.598;7.668;2023-02-23T06:02:35;100566.09;;;15.82;52.95
29383;BME280;16365;51.598;7.668;2023-02-23T06:05:02;100565.28;;;15.81;53.07
29383;BME280;16365;51.598;7.668;2023-02-23T06:07:28;100569.25;;;15.80;53.23
29383;BME280;16365;51.598;7.668;2023-02-23T06:09:55;100570.44;;;15.79;53.20
29383;BME280;16365;51.598;7.668;2023-02-23T06:12:21;100569.19;;;15.77;53.15
29383;BME280;16365;51.598;7.668;2023-02-23T06:14:49;100572.34;;;15.75;53.18
29383;BME280;16365;51.598;7.668;2023-02-23T06:17:16;100572.34;;;15.75;53.55
29383;BME280;16365;51.598;7.668;2023-02-23T06:19:42;100584.31;;;15.76;53.21
29383;BME280;16365;51.598;7.668;2023-02-23T06:22:09;100583.50;;;15.75;53.33
29383;BME280;16365;51.598;7.668;2023-02-23T06:24:36;100585.16;;;15.76;53.25
29383;BME280;16365;51.598;7.668;2023-02-23T06:27:02;100575.13;;;15.75;53.15
29383;BME280;16365;51.598;7.668;2023-02-23T06:29:30;100587.13;;;15.76;53.42
29383;BME280;16365;51.598;7.668;2023-02-23T06:31:56;100588.28;;;15.75;53.10
29383;BME280;16365;51.598;7.668;2023-02-23T06:34:26;100597.50;;;15.75;53.57
29383;BME280;16365;51.598;7.668;2023-02-23T06:36:52;100599.47;;;15.75;53.38
29383;BME280;16365;51.598;7.668;2023-02-23T06:39:19;100598.66;;;15.74;53.27
29383;BME280;16365;51.598;7.668;2023-02-23T06:41:45;100600.66;;;15.74;53.51
29383;BME280;16365;51.598;7.668;2023-02-23T06:44:12;100605.44;;;15.73;53.47
29383;BME280;16365;51.598;7.668;2023-02-23T06:46:39;100609.41;;;15.72;53.54
29383;BME280;16365;51.598;7.668;2023-02-23T06:49:05;100606.63;;;15.72;53.27
29383;BME280;16365;51.598;7.668;2023-02-23T06:51:32;100605.81;;;15.72;53.44
29383;BME280;16365;51.598;7.668;2023-02-23T06:53:59;100612.56;;;15.71;53.46
29383;BME280;16365;51.598;7.668;2023-02-23T06:56:25;100620.13;;;15.70;53.46
29383;BME280;16365;51.598;7.668;2023-02-23T06:58:51;100618.16;;;15.71;53.43
29383;BME280;16365;51.598;7.668;2023-02-23T07:01:18;100624.13;;;15.69;53.60
29383;BME280;16365;51.598;7.668;2023-02-23T07:03:46;100618.16;;;15.71;53.36
29383;BME280;16365;51.598;7.668;2023-02-23T07:06:13;100622.94;;;15.70;53.80
29383;BME280;16365;51.598;7.668;2023-02-23T07:08:39;100619.34;;;15.70;53.48
29383;BME280;16365;51.598;7.668;2023-02-23T07:11:08;100624.50;;;15.67;53.66
29383;BME280;16365;51.598;7.668;2023-02-23T07:13:35;100623.69;;;15.67;53.43
29383;BME280;16365;51.598;7.668;2023-02-23T07:16:02;100632.06;;;15.67;53.25
29383;BME280;16365;51.598;7.668;2023-02-23T07:18:28;100635.59;;;15.64;53.27
29383;BME280;16365;51.598;7.668;2023-02-23T07:20:55;100633.94;;;15.63;53.45
29383;BME280;16365;51.598;7.668;2023-02-23T07:23:21;100630.69;;;15.61;53.18
29383;BME280;16365;51.598;7.668;2023-02-23T07:25:54;100641.78;;;15.57;53.56
29383;BME280;16365;51.598;7.668;2023-02-23T07:28:21;100642.59;;;15.58;53.52
29383;BME280;16365;51.598;7.668;2023-02-23T07:30:48;100642.59;;;15.58;53.42
29383;BME280;16365;51.598;7.668;2023-02-23T07:33:17;100643.75;;;15.57;53.41
29383;BME280;16365;51.598;7.668;2023-02-23T07:35:44;100650.53;;;15.56;53.34
29383;BME280;16365;51.598;7.668;2023-02-23T07:38:10;100641.34;;;15.55;53.79
29383;BME280;16365;51.598;7.668;2023-02-23T07:40:38;100646.53;;;15.57;53.72
29383;BME280;16365;51.598;7.668;2023-02-23T07:43:05;100650.53;;;15.56;53.45
29383;BME280;16365;51.598;7.668;2023-02-23T07:45:32;100652.13;;;15.57;53.51
29383;BME280;16365;51.598;7.668;2023-02-23T07:47:59;100655.78;;;15.57;53.56
29383;BME280;16365;51.598;7.668;2023-02-23T07:50:25;100656.19;;;15.59;53.67
29383;BME280;16365;51.598;7.668;2023-02-23T07:52:52;100657.81;;;15.60;53.66
29383;BME280;16365;51.598;7.668;2023-02-23T07:55:18;100663.41;;;15.60;53.83
29383;BME280;16365;51.598;7.668;2023-02-23T07:57:46;100659.44;;;15.61;53.66
29383;BME280;16365;51.598;7.668;2023-02-23T08:00:13;100671.44;;;15.62;53.36
29383;BME280;16365;51.598;7.668;2023-02-23T08:02:40;100663.06;;;15.62;53.65
29383;BME280;16365;51.598;7.668;2023-02-23T08:05:06;100667.47;;;15.63;53.56
29383;BME280;16365;51.598;7.668;2023-02-23T08:07:33;100678.66;;;15.63;53.55
29383;BME280;16365;51.598;7.668;2023-02-23T08:09:59;100671.91;;;15.64;53.74
29383;BME280;16365;51.598;7.668;2023-02-23T08:12:26;100679.94;;;15.65;53.78
29383;BME280;16365;51.598;7.668;2023-02-23T08:14:53;100679.94;;;15.65;53.51
29383;BME280;16365;51.598;7.668;2023-02-23T08:17:19;100683.53;;;15.66;53.53
29383;BME280;16365;51.598;7.668;2023-02-23T08:19:46;100679.59;;;15.67;53.60
29383;BME280;16365;51.598;7.668;2023-02-23T08:22:12;100677.94;;;15.66;53.28
29383;BME280;16365;51.598;7.668;2023-02-23T08:24:38;100685.50;;;15.65;53.24
29383;BME280;16365;51.598;7.668;2023-02-23T08:27:05;100684.38;;;15.66;53.24
29383;BME280;16365;51.598;7.668;2023-02-23T08:29:31;100697.06;;;15.64;53.49
29383;BME280;16365;51.598;7.668;2023-02-23T08:32:03;100695.09;;;15.64;53.50
29383;BME280;16365;51.598;7.668;2023-02-23T08:34:30;100697.50;;;15.66;53.21
29383;BME280;16365;51.598;7.668;2023-02-23T08:36:56;100701.13;;;15.66;53.40
29383;BME280;16365;51.598;7.668;2023-02-23T08:39:23;100703.94;;;15.66;53.70
29383;BME280;16365;51.598;7.668;2023-02-23T08:41:49;100699.97;;;15.67;53.26
29383;BME280;16365;51.598;7.668;2023-02-23T08:44:16;100705.97;;;15.70;53.23
29383;BME280;16365;51.598;7.668;2023-02-23T08:46:43;100705.59;;;15.71;53.58
29383;BME280;16365;51.598;7.668;2023-02-23T08:49:10;100706.44;;;15.72;53.23
29383;BME280;16365;51.598;7.668;2023-02-23T08:51:37;100706.06;;;15.73;53.33
29383;BME280;16365;51.598;7.668;2023-02-23T08:54:04;100703.72;;;15.75;53.71
29383;BME280;16365;51.598;7.668;2023-02-23T08:56:35;100711.38;;;15.78;52.91
29383;BME280;16365;51.598;7.668;2023-02-23T08:59:02;100712.19;;;15.79;53.27
29383;BME280;16365;51.598;7.668;2023-02-23T09:01:29;100714.28;;;15.82;53.16
29383;BME280;16365;51.598;7.668;2023-02-23T09:03:55;100715.88;;;15.83;53.11
29383;BME280;16365;51.598;7.668;2023-02-23T09:06:23;100719.50;;;15.83;53.22
29383;BME280;16365;51.598;7.668;2023-02-23T09:08:54;100711.53;;;15.85;53.14
29383;BME280;16365;51.598;7.668;2023-02-23T09:11:22;100727.97;;;15.87;52.88
29383;BME280;16365;51.598;7.668;2023-02-23T09:13:49;100725.16;;;15.87;52.53
29383;BME280;16365;51.598;7.668;2023-02-23T09:16:15;100724.00;;;15.88;52.77
29383;BME280;16365;51.598;7.668;2023-02-23T09:18:43;100728.78;;;15.87;53.07
29383;BME280;16365;51.598;7.668;2023-02-23T09:21:14;100732.75;;;15.86;52.84
29383;BME280;16365;51.598;7.668;2023-02-23T09:23:44;100729.59;;;15.88;52.95
29383;BME280;16365;51.598;7.668;2023-02-23T09:26:13;100732.00;;;15.89;52.83
29383;BME280;16365;51.598;7.668;2023-02-23T09:28:40;100735.97;;;15.88;53.05
29383;BME280;16365;51.598;7.668;2023-02-23T09:31:11;100737.97;;;15.88;53.02
29383;BME280;16365;51.598;7.668;2023-02-23T09:33:39;100737.97;;;15.88;52.90
29383;BME280;16365;51.598;7.668;2023-02-23T09:36:10;100744.75;;;15.87;52.94
29383;BME280;16365;51.598;7.668;2023-02-23T09:38:38;100737.16;;;15.87;53.06
29383;BME280;16365;51.598;7.668;2023-02-23T09:41:24;100739.50;;;15.85;53.52
29383;BME280;16365;51.598;7.668;2023-02-23T09:46:48;100744.81;;;15.90;53.21
29383;BME280;16365;51.598;7.668;2023-02-23T09:49:22;100740.84;;;15.91;52.96
29383;BME280;16365;51.598;7.668;2023-02-23T09:51:53;100740.06;;;15.91;52.65
29383;BME280;16365;51.598;7.668;2023-02-23T09:54:27;100745.66;;;15.91;52.93
29383;BME280;16365;51.598;7.668;2023-02-23T09:56:55;100748.06;;;15.92;53.22
29383;BME280;16365;51.598;7.668;2023-02-23T09:59:23;100744.09;;;15.93;53.10
29383;BME280;16365;51.598;7.668;2023-02-23T10:01:58;100748.50;;;15.94;53.12
29383;BME280;16365;51.598;7.668;2023-02-23T10:04:29;100750.59;;;15.98;52.89
29383;BME280;16365;51.598;7.668;2023-02-23T10:07:08;100743.38;;;15.97;53.36
29383;BME280;16365;51.598;7.668;2023-02-23T10:12:22;100747.78;;;15.98;52.88
29383;BME280;16365;51.598;7.668;2023-02-23T10:15:18;100764.66;;;16.01;52.99
29383;BME280;16365;51.598;7.668;2023-02-23T10:23:06;100760.78;;;16.06;53.01
29383;BME280;16365;51.598;7.668;2023-02-23T10:25:40;100762.38;;;16.07;53.46
29383;BME280;16365;51.598;7.668;2023-02-23T10:28:15;100761.19;;;16.08;53.08
29383;BME280;16365;51.598;7.668;2023-02-23T10:30:43;100769.69;;;16.11;53.15
29383;BME280;16365;51.598;7.668;2023-02-23T10:33:14;100774.91;;;16.13;53.01
29383;BME280;16365;51.598;7.668;2023-02-23T10:35:43;100776.59;;;16.17;53.12
29383;BME280;16365;51.598;7.668;2023-02-23T10:38:17;100768.22;;;16.17;52.83
29383;BME280;16365;51.598;7.668;2023-02-23T10:40:49;100770.72;;;16.23;53.22
29383;BME280;16365;51.598;7.668;2023-02-23T10:43:16;100770.81;;;16.26;53.22
29383;BME280;16365;51.598;7.668;2023-02-23T10:45:48;100772.44;;;16.27;52.97
29383;BME280;16365;51.598;7.668;2023-02-23T10:48:33;100762.84;;;16.28;52.70
29383;BME280;16365;51.598;7.668;2023-02-23T10:51:06;100767.00;;;16.34;52.71
29383;BME280;16365;51.598;7.668;2023-02-23T10:53:34;100761.41;;;16.34;52.48
29383;BME280;16365;51.598;7.668;2023-02-23T10:56:04;100766.63;;;16.36;52.33
29383;BME280;16365;51.598;7.668;2023-02-23T10:58:40;100771.44;;;16.35;52.47
29383;BME280;16365;51.598;7.668;2023-02-23T11:01:09;100758.34;;;16.39;52.54
29383;BME280;16365;51.598;7.668;2023-02-23T11:03:41;100759.84;;;16.37;52.79
29383;BME280;16365;51.598;7.668;2023-02-23T11:08:52;100755.16;;;16.41;52.73
29383;BME280;16365;51.598;7.668;2023-02-23T11:11:25;100759.94;;;16.40;52.36
29383;BME280;16365;51.598;7.668;2023-02-23T11:13:55;100765.16;;;16.42;52.53
29383;BME280;16365;51.598;7.668;2023-02-23T11:16:28;100755.97;;;16.41;52.58
29383;BME280;16365;51.598;7.668;2023-02-23T11:19:01;100755.97;;;16.41;52.16
29383;BME280;16365;51.598;7.668;2023-02-23T11:21:33;100757.16;;;16.40;51.90
29383;BME280;16365;51.598;7.668;2023-02-23T11:26:52;100765.47;;;16.37;52.49
29383;BME280;16365;51.598;7.668;2023-02-23T11:29:31;100762.13;;;16.31;52.10
29383;BME280;16365;51.598;7.668;2023-02-23T11:32:14;100765.31;;;16.30;52.26
29383;BME280;16365;51.598;7.668;2023-02-23T11:34:42;100769.25;;;16.29;52.04
29383;BME280;16365;51.598;7.668;2023-02-23T11:40:00;100770.22;;;16.17;51.91
29383;BME280;16365;51.598;7.668;2023-02-23T11:42:32;100770.59;;;16.15;52.22
29383;BME280;16365;51.598;7.668;2023-02-23T11:45:16;100765.63;;;16.09;52.02
29383;BME280;16365;51.598;7.668;2023-02-23T11:47:46;100759.22;;;16.08;52.27
29383;BME280;16365;51.598;7.668;2023-02-23T11:50:21;100755.91;;;16.03;52.05
29383;BME280;16365;51.598;7.668;2023-02-23T11:53:00;100762.19;;;16.00;51.86
29383;BME280;16365;51.598;7.668;2023-02-23T11:55:29;100762.56;;;15.98;52.09
29383;BME280;16365;51.598;7.668;2023-02-23T11:58:09;100758.44;;;15.92;52.00
29383;BME280;16365;51.598;7.668;2023-02-23T12:00:37;100756.81;;;15.91;52.06
29383;BME280;16365;51.598;7.668;2023-02-23T12:03:04;100758.72;;;15.87;51.87
29383;BME280;16365;51.598;7.668;2023-02-23T12:05:32;100758.63;;;15.83;51.95
29383;BME280;16365;51.598;7.668;2023-02-23T12:08:05;100761.34;;;15.80;52.19
29383;BME280;16365;51.598;7.668;2023-02-23T12:10:54;100766.38;;;15.74;52.37
29383;BME280;16365;51.598;7.668;2023-02-23T12:13:30;100762.78;;;15.74;52.40
29383;BME280;16365;51.598;7.668;2023-02-23T12:16:02;100767.09;;;15.71;51.91
29383;BME280;16365;51.598;7.668;2023-02-23T12:18:43;100766.22;;;15.67;52.10
29383;BME280;16365;51.598;7.668;2023-02-23T12:32:48;100757.09;;;15.54;52.07
29383;BME280;16365;51.598;7.668;2023-02-23T12:35:26;100763.47;;;15.55;52.14
29383;BME280;16365;51.598;7.668;2023-02-23T12:38:03;100763.84;;;15.53;51.95
29383;BME280;16365;51.598;7.668;2023-02-23T12:40:36;100765.47;;;15.54;52.12
29383;BME280;16365;51.598;7.668;2023-02-23T12:43:18;100764.56;;;15.50;52.65
29383;BME280;16365;51.598;7.668;2023-02-23T12:45:51;100763.38;;;15.51;52.35
29383;BME280;16365;51.598;7.668;2023-02-23T12:48:33;100762.94;;;15.49;52.22
29383;BME280;16365;51.598;7.668;2023-02-23T12:51:05;100768.97;;;15.51;52.09
29383;BME280;16365;51.598;7.668;2023-02-23T12:53:42;100775.75;;;15.50;51.99
29383;BME280;16365;51.598;7.668;2023-02-23T13:01:56;100777.28;;;15.48;51.89
29383;BME280;16365;51.598;7.668;2023-02-23T13:10:39;100771.22;;;15.46;52.37
29383;BME280;16365;51.598;7.668;2023-02-23T13:13:41;100769.72;;;15.48;52.37
29383;BME280;16365;51.598;7.668;2023-02-23T13:16:32;100771.31;;;15.49;52.28
29383;BME280;16365;51.598;7.668;2023-02-23T13:19:25;100765.75;;;15.49;51.97
29383;BME280;16365;51.598;7.668;2023-02-23T13:21:59;100773.75;;;15.51;51.67
29383;BME280;16365;51.598;7.668;2023-02-23T13:24:38;100769.25;;;15.46;51.78
29383;BME280;16365;51.598;7.668;2023-02-23T13:27:26;100770.41;;;15.45;51.60
29383;BME280;16365;51.598;7.668;2023-02-23T13:29:55;100776.38;;;15.43;51.62
29383;BME280;16365;51.598;7.668;2023-02-23T13:32:27;100774.28;;;15.40;51.89
29383;BME280;16365;51.598;7.668;2023-02-23T13:35:14;100770.59;;;15.36;51.64
29383;BME280;16365;51.598;7.668;2023-02-23T13:37:50;100769.34;;;15.34;51.28
29383;BME280;16365;51.598;7.668;2023-02-23T13:40:29;100773.66;;;15.31;51.39
29383;BME280;16365;51.598;7.668;2023-02-23T13:42:58;100768.53;;;15.33;51.72
29383;BME280;16365;51.598;7.668;2023-02-23T13:51:07;100787.44;;;15.24;51.30
29383;BME280;16365;51.598;7.668;2023-02-23T13:53:46;100786.25;;;15.25;51.82
29383;BME280;16365;51.598;7.668;2023-02-23T13:56:25;100796.16;;;15.23;51.52
29383;BME280;16365;51.598;7.668;2023-02-23T13:59:04;100784.91;;;15.19;51.68
29383;BME280;16365;51.598;7.668;2023-02-23T14:01:38;100791.63;;;15.18;51.42
29383;BME280;16365;51.598;7.668;2023-02-23T14:04:13;100789.22;;;15.16;51.82
29383;BME280;16365;51.598;7.668;2023-02-23T14:06:50;100785.97;;;15.14;51.79
29383;BME280;16365;51.598;7.668;2023-02-23T14:09:30;100788.75;;;15.14;51.74
29383;BME280;16365;51.598;7.668;2023-02-23T14:20:35;100792.88;;;15.05;51.28
29383;BME280;16365;51.598;7.668;2023-02-23T14:25:51;100798.00;;;15.03;51.47
29383;BME280;16365;51.598;7.668;2023-02-23T14:33:50;100813.03;;;14.98;51.47
29383;BME280;16365;51.598;7.668;2023-02-23T14:43:57;100800.25;;;14.97;51.38
29383;BME280;16365;51.598;7.668;2023-02-23T14:46:25;100801.03;;;14.98;51.78
29383;BME280;16365;51.598;7.668;2023-02-23T14:48:59;100796.63;;;14.97;51.55
29383;BME280;16365;51.598;7.668;2023-02-23T14:51:39;100793.41;;;14.95;51.45